sensor_id;sensor_type;location;lat;lon;timestamp;temperature;humidity
38941;DHT22;43236;47.208;7.518;2024-02-14T00:00:26;7.90;91.90
38941;DHT22;43236;47.208;7.518;2024-02-14T00:03:15;7.90;92.00
38941;DHT22;43236;47.208;7.518;2024-02-14T00:06:04;7.90;92.20
38941;DHT22;43236;47.208;7.518;2024-02-14T00:08:52;7.80;92.10
38941;DHT22;43236;47.208;7.518;2024-02-14T00:11:39;7.90;92.00
38941;DHT22;43236;47.208;7.518;2024-02-14T00:14:26;7.90;91.90
38941;DHT22;43236;47.208;7.518;2024-02-14T00:17:13;7.80;92.00
38941;DHT22;43236;47.208;7.518;2024-02-14T00:20:03;7.80;92.20
38941;DHT22;43236;47.208;7.518;2024-02-14T00:22:50;7.90;92.50
38941;DHT22;43236;47.208;7.518;2024-02-14T00:25:37;7.90;92.50
38941;DHT22;43236;47.208;7.518;2024-02-14T00:28:24;7.90;92.60
38941;DHT22;43236;47.208;7.518;2024-02-14T00:31:12;7.90;92.50
38941;DHT22;43236;47.208;7.518;2024-02-14T00:33:59;8.00;92.70
38941;DHT22;43236;47.208;7.518;2024-02-14T00:36:48;8.00;92.60
38941;DHT22;43236;47.208;7.518;2024-02-14T00:39:35;8.00;92.80
38941;DHT22;43236;47.208;7.518;2024-02-14T00:42:22;8.00;92.60
38941;DHT22;43236;47.208;7.518;2024-02-14T00:45:09;8.00;92.50
38941;DHT22;43236;47.208;7.518;2024-02-14T00:47:56;8.00;92.50
38941;DHT22;43236;47.208;7.518;2024-02-14T00:50:43;8.00;92.40
38941;DHT22;43236;47.208;7.518;2024-02-14T00:53:32;7.90;92.10
38941;DHT22;43236;47.208;7.518;2024-02-14T00:56:19;7.90;92.40
38941;DHT22;43236;47.208;7.518;2024-02-14T00:59:06;7.90;92.30
38941;DHT22;43236;47.208;7.518;2024-02-14T01:01:53;7.90;92.20
38941;DHT22;43236;47.208;7.518;2024-02-14T01:04:40;7.90;92.50
38941;DHT22;43236;47.208;7.518;2024-02-14T01:07:27;7.90;92.40
38941;DHT22;43236;47.208;7.518;2024-02-14T01:10:16;7.90;92.50
38941;DHT22;43236;47.208;7.518;2024-02-14T01:13:04;7.90;92.50
38941;DHT22;43236;47.208;7.518;2024-02-14T01:15:52;7.90;92.40
38941;DHT22;43236;47.208;7.518;2024-02-14T01:18:39;7.90;92.30
38941;DHT22;43236;47.208;7.518;2024-02-14T01:21:26;7.90;92.40
38941;DHT22;43236;47.208;7.518;2024-02-14T01:24:13;7.90;92.50
38941;DHT22;43236;47.208;7.518;2024-02-14T01:27:01;8.00;92.60
38941;DHT22;43236;47.208;7.518;2024-02-14T01:29:50;8.00;92.50
38941;DHT22;43236;47.208;7.518;2024-02-14T01:32:37;8.00;92.60
38941;DHT22;43236;47.208;7.518;2024-02-14T01:35:24;8.00;92.60
38941;DHT22;43236;47.208;7.518;2024-02-14T01:38:12;8.00;92.70
38941;DHT22;43236;47.208;7.518;2024-02-14T01:40:59;8.10;92.70
38941;DHT22;43236;47.208;7.518;2024-02-14T01:43:50;8.10;92.70
38941;DHT22;43236;47.208;7.518;2024-02-14T01:46:37;8.10;92.80
38941;DHT22;43236;47.208;7.518;2024-02-14T01:49:24;8.10;92.70
38941;DHT22;43236;47.208;7.518;2024-02-14T01:52:14;8.10;92.50
38941;DHT22;43236;47.208;7.518;2024-02-14T01:55:02;8.10;92.70
38941;DHT22;43236;47.208;7.518;2024-02-14T01:57:51;8.10;92.80
38941;DHT22;43236;47.208;7.518;2024-02-14T02:00:39;8.10;92.90
38941;DHT22;43236;47.208;7.518;2024-02-14T02:03:27;8.20;92.80
38941;DHT22;43236;47.208;7.518;2024-02-14T02:06:14;8.20;92.60
38941;DHT22;43236;47.208;7.518;2024-02-14T02:09:02;8.20;93.00
38941;DHT22;43236;47.208;7.518;2024-02-14T02:11:50;8.30;93.10
38941;DHT22;43236;47.208;7.518;2024-02-14T02:14:39;8.30;93.20
38941;DHT22;43236;47.208;7.518;2024-02-14T02:17:28;8.30;93.00
38941;DHT22;43236;47.208;7.518;2024-02-14T02:20:15;8.30;92.90
38941;DHT22;43236;47.208;7.518;2024-02-14T02:23:05;8.40;93.00
38941;DHT22;43236;47.208;7.518;2024-02-14T02:25:55;8.40;93.20
38941;DHT22;43236;47.208;7.518;2024-02-14T02:28:42;8.40;93.30
38941;DHT22;43236;47.208;7.518;2024-02-14T02:31:29;8.40;93.30
38941;DHT22;43236;47.208;7.518;2024-02-14T02:34:16;8.40;92.90
38941;DHT22;43236;47.208;7.518;2024-02-14T02:37:03;8.40;93.00
38941;DHT22;43236;47.208;7.518;2024-02-14T02:39:54;8.40;93.00
38941;DHT22;43236;47.208;7.518;2024-02-14T02:42:41;8.40;93.00
38941;DHT22;43236;47.208;7.518;2024-02-14T02:45:28;8.50;93.20
38941;DHT22;43236;47.208;7.518;2024-02-14T02:48:15;8.50;93.50
38941;DHT22;43236;47.208;7.518;2024-02-14T02:51:03;8.50;93.50
38941;DHT22;43236;47.208;7.518;2024-02-14T02:53:50;8.50;93.40
38941;DHT22;43236;47.208;7.518;2024-02-14T02:56:39;8.50;93.30
38941;DHT22;43236;47.208;7.518;2024-02-14T02:59:27;8.50;93.40
38941;DHT22;43236;47.208;7.518;2024-02-14T03:02:15;8.50;93.40
38941;DHT22;43236;47.208;7.518;2024-02-14T03:05:02;8.50;93.30
38941;DHT22;43236;47.208;7.518;2024-02-14T03:07:52;8.50;93.20
38941;DHT22;43236;47.208;7.518;2024-02-14T03:10:39;8.40;93.10
38941;DHT22;43236;47.208;7.518;2024-02-14T03:13:28;8.40;93.00
38941;DHT22;43236;47.208;7.518;2024-02-14T03:16:15;8.40;93.00
38941;DHT22;43236;47.208;7.518;2024-02-14T03:19:03;8.30;93.10
38941;DHT22;43236;47.208;7.518;2024-02-14T03:21:50;8.30;93.10
38941;DHT22;43236;47.208;7.518;2024-02-14T03:24:37;8.30;93.00
38941;DHT22;43236;47.208;7.518;2024-02-14T03:27:24;8.30;93.20
38941;DHT22;43236;47.208;7.518;2024-02-14T03:30:14;8.30;93.20
38941;DHT22;43236;47.208;7.518;2024-02-14T03:33:02;8.30;93.40
38941;DHT22;43236;47.208;7.518;2024-02-14T03:35:49;8.30;93.40
38941;DHT22;43236;47.208;7.518;2024-02-14T03:38:36;8.30;93.20
38941;DHT22;43236;47.208;7.518;2024-02-14T03:41:25;8.20;93.00
38941;DHT22;43236;47.208;7.518;2024-02-14T03:44:14;8.20;93.10
38941;DHT22;43236;47.208;7.518;2024-02-14T03:47:03;8.20;93.40
38941;DHT22;43236;47.208;7.518;2024-02-14T03:49:50;8.20;93.50
38941;DHT22;43236;47.208;7.518;2024-02-14T03:52:37;8.20;93.50
38941;DHT22;43236;47.208;7.518;2024-02-14T03:55:24;8.20;93.50
38941;DHT22;43236;47.208;7.518;2024-02-14T03:58:11;8.20;93.60
38941;DHT22;43236;47.208;7.518;2024-02-14T04:01:00;8.30;93.70
38941;DHT22;43236;47.208;7.518;2024-02-14T04:03:49;8.30;93.70
38941;DHT22;43236;47.208;7.518;2024-02-14T04:06:36;8.30;93.80
38941;DHT22;43236;47.208;7.518;2024-02-14T04:09:23;8.40;93.90
38941;DHT22;43236;47.208;7.518;2024-02-14T04:12:10;8.40;93.70
38941;DHT22;43236;47.208;7.518;2024-02-14T04:14:58;8.40;93.70
38941;DHT22;43236;47.208;7.518;2024-02-14T04:17:45;8.40;93.60
38941;DHT22;43236;47.208;7.518;2024-02-14T04:20:33;8.40;93.40
38941;DHT22;43236;47.208;7.518;2024-02-14T04:23:20;8.50;93.40
38941;DHT22;43236;47.208;7.518;2024-02-14T04:26:08;8.40;93.70
38941;DHT22;43236;47.208;7.518;2024-02-14T04:28:55;8.50;93.70
38941;DHT22;43236;47.208;7.518;2024-02-14T04:31:43;8.50;93.60
38941;DHT22;43236;47.208;7.518;2024-02-14T04:34:30;8.50;93.60
38941;DHT22;43236;47.208;7.518;2024-02-14T04:37:18;8.50;93.40
38941;DHT22;43236;47.208;7.518;2024-02-14T04:40:07;8.50;93.70
38941;DHT22;43236;47.208;7.518;2024-02-14T04:42:54;8.50;93.60
38941;DHT22;43236;47.208;7.518;2024-02-14T04:45:41;8.50;93.80
38941;DHT22;43236;47.208;7.518;2024-02-14T04:48:29;8.50;93.50
38941;DHT22;43236;47.208;7.518;2024-02-14T04:51:16;8.50;93.50
38941;DHT22;43236;47.208;7.518;2024-02-14T04:54:04;8.50;93.50
38941;DHT22;43236;47.208;7.518;2024-02-14T04:56:51;8.50;93.30
38941;DHT22;43236;47.208;7.518;2024-02-14T04:59:38;8.50;93.30
38941;DHT22;43236;47.208;7.518;2024-02-14T05:02:25;8.60;93.50
38941;DHT22;43236;47.208;7.518;2024-02-14T05:05:13;8.60;93.30
38941;DHT22;43236;47.208;7.518;2024-02-14T05:08:01;8.60;93.80
38941;DHT22;43236;47.208;7.518;2024-02-14T05:10:50;8.60;93.60
38941;DHT22;43236;47.208;7.518;2024-02-14T05:13:37;8.60;93.50
38941;DHT22;43236;47.208;7.518;2024-02-14T05:16:27;8.60;93.50
38941;DHT22;43236;47.208;7.518;2024-02-14T05:19:14;8.70;93.90
38941;DHT22;43236;47.208;7.518;2024-02-14T05:22:01;8.70;93.80
38941;DHT22;43236;47.208;7.518;2024-02-14T05:24:48;8.70;93.90
38941;DHT22;43236;47.208;7.518;2024-02-14T05:27:37;8.70;93.90
38941;DHT22;43236;47.208;7.518;2024-02-14T05:30:24;8.70;93.90
38941;DHT22;43236;47.208;7.518;2024-02-14T05:33:12;8.70;93.80
38941;DHT22;43236;47.208;7.518;2024-02-14T05:35:59;8.70;94.00
38941;DHT22;43236;47.208;7.518;2024-02-14T05:38:46;8.70;93.60
38941;DHT22;43236;47.208;7.518;2024-02-14T05:41:33;8.70;94.10
38941;DHT22;43236;47.208;7.518;2024-02-14T05:44:22;8.70;93.70
38941;DHT22;43236;47.208;7.518;2024-02-14T05:47:09;8.70;94.10
38941;DHT22;43236;47.208;7.518;2024-02-14T05:49:57;8.70;94.10
38941;DHT22;43236;47.208;7.518;2024-02-14T05:52:44;8.80;94.10
38941;DHT22;43236;47.208;7.518;2024-02-14T05:55:31;8.80;94.10
38941;DHT22;43236;47.208;7.518;2024-02-14T05:58:19;8.80;94.00
38941;DHT22;43236;47.208;7.518;2024-02-14T06:01:07;8.80;93.90
38941;DHT22;43236;47.208;7.518;2024-02-14T06:03:54;8.80;93.90
38941;DHT22;43236;47.208;7.518;2024-02-14T06:06:41;8.70;93.90
38941;DHT22;43236;47.208;7.518;2024-02-14T06:09:28;8.70;93.90
38941;DHT22;43236;47.208;7.518;2024-02-14T06:12:15;8.70;94.10
38941;DHT22;43236;47.208;7.518;2024-02-14T06:15:03;8.70;94.10
38941;DHT22;43236;47.208;7.518;2024-02-14T06:17:52;8.80;93.90
38941;DHT22;43236;47.208;7.518;2024-02-14T06:20:39;8.80;93.80
38941;DHT22;43236;47.208;7.518;2024-02-14T06:23:26;8.80;94.00
38941;DHT22;43236;47.208;7.518;2024-02-14T06:26:13;8.80;94.10
38941;DHT22;43236;47.208;7.518;2024-02-14T06:29:00;8.80;94.10
38941;DHT22;43236;47.208;7.518;2024-02-14T06:31:48;8.80;93.70
38941;DHT22;43236;47.208;7.518;2024-02-14T06:34:36;8.80;93.70
38941;DHT22;43236;47.208;7.518;2024-02-14T06:37:23;8.80;93.70
38941;DHT22;43236;47.208;7.518;2024-02-14T06:40:11;8.90;93.60
38941;DHT22;43236;47.208;7.518;2024-02-14T06:42:59;8.90;93.60
38941;DHT22;43236;47.208;7.518;2024-02-14T06:45:46;8.90;93.90
38941;DHT22;43236;47.208;7.518;2024-02-14T06:48:33;8.90;93.80
38941;DHT22;43236;47.208;7.518;2024-02-14T06:51:22;8.80;93.70
38941;DHT22;43236;47.208;7.518;2024-02-14T06:54:09;8.90;93.60
38941;DHT22;43236;47.208;7.518;2024-02-14T06:57:00;8.90;93.50
38941;DHT22;43236;47.208;7.518;2024-02-14T06:59:47;8.90;93.50
38941;DHT22;43236;47.208;7.518;2024-02-14T07:02:34;8.90;93.60
38941;DHT22;43236;47.208;7.518;2024-02-14T07:05:22;8.90;93.50
38941;DHT22;43236;47.208;7.518;2024-02-14T07:08:10;8.90;93.40
38941;DHT22;43236;47.208;7.518;2024-02-14T07:10:57;8.90;93.50
38941;DHT22;43236;47.208;7.518;2024-02-14T07:13:44;9.00;93.60
38941;DHT22;43236;47.208;7.518;2024-02-14T07:16:31;9.00;93.60
38941;DHT22;43236;47.208;7.518;2024-02-14T07:19:18;9.00;93.60
38941;DHT22;43236;47.208;7.518;2024-02-14T07:22:05;9.00;93.90
38941;DHT22;43236;47.208;7.518;2024-02-14T07:24:54;9.10;93.70
38941;DHT22;43236;47.208;7.518;2024-02-14T07:27:41;9.10;93.60
38941;DHT22;43236;47.208;7.518;2024-02-14T07:30:28;9.10;93.70
38941;DHT22;43236;47.208;7.518;2024-02-14T07:33:15;9.10;93.90
38941;DHT22;43236;47.208;7.518;2024-02-14T07:36:02;9.10;93.70
38941;DHT22;43236;47.208;7.518;2024-02-14T07:38:50;9.20;93.60
38941;DHT22;43236;47.208;7.518;2024-02-14T07:41:38;9.20;93.60
38941;DHT22;43236;47.208;7.518;2024-02-14T07:44:25;9.10;93.80
38941;DHT22;43236;47.208;7.518;2024-02-14T07:47:12;9.20;93.80
38941;DHT22;43236;47.208;7.518;2024-02-14T07:49:59;9.20;93.60
38941;DHT22;43236;47.208;7.518;2024-02-14T07:52:47;9.30;93.60
38941;DHT22;43236;47.208;7.518;2024-02-14T07:55:34;9.30;93.80
38941;DHT22;43236;47.208;7.518;2024-02-14T07:58:22;9.30;93.70
38941;DHT22;43236;47.208;7.518;2024-02-14T08:01:09;9.30;93.90
38941;DHT22;43236;47.208;7.518;2024-02-14T08:03:56;9.30;93.90
38941;DHT22;43236;47.208;7.518;2024-02-14T08:06:45;9.40;93.70
38941;DHT22;43236;47.208;7.518;2024-02-14T08:09:34;9.50;93.80
38941;DHT22;43236;47.208;7.518;2024-02-14T08:12:22;9.50;93.80
38941;DHT22;43236;47.208;7.518;2024-02-14T08:15:12;9.40;93.90
38941;DHT22;43236;47.208;7.518;2024-02-14T08:17:59;9.50;93.90
38941;DHT22;43236;47.208;7.518;2024-02-14T08:20:46;9.40;93.80
38941;DHT22;43236;47.208;7.518;2024-02-14T08:23:33;9.50;94.20
38941;DHT22;43236;47.208;7.518;2024-02-14T08:26:20;9.50;94.30
38941;DHT22;43236;47.208;7.518;2024-02-14T08:29:08;9.60;94.20
38941;DHT22;43236;47.208;7.518;2024-02-14T08:31:58;9.70;94.50
38941;DHT22;43236;47.208;7.518;2024-02-14T08:34:45;9.70;94.40
38941;DHT22;43236;47.208;7.518;2024-02-14T08:37:33;9.80;94.20
38941;DHT22;43236;47.208;7.518;2024-02-14T08:40:22;9.80;94.10
38941;DHT22;43236;47.208;7.518;2024-02-14T08:43:09;9.90;94.10
38941;DHT22;43236;47.208;7.518;2024-02-14T08:45:57;9.90;94.30
38941;DHT22;43236;47.208;7.518;2024-02-14T08:48:46;10.00;93.20
38941;DHT22;43236;47.208;7.518;2024-02-14T08:51:34;10.00;93.30
38941;DHT22;43236;47.208;7.518;2024-02-14T08:54:21;10.10;93.20
38941;DHT22;43236;47.208;7.518;2024-02-14T08:57:09;10.10;93.00
38941;DHT22;43236;47.208;7.518;2024-02-14T08:59:56;10.20;93.20
38941;DHT22;43236;47.208;7.518;2024-02-14T09:02:43;10.10;92.70
38941;DHT22;43236;47.208;7.518;2024-02-14T09:05:31;10.10;92.30
38941;DHT22;43236;47.208;7.518;2024-02-14T09:08:18;10.20;92.10
38941;DHT22;43236;47.208;7.518;2024-02-14T09:11:06;10.20;92.20
38941;DHT22;43236;47.208;7.518;2024-02-14T09:13:55;10.30;92.50
38941;DHT22;43236;47.208;7.518;2024-02-14T09:16:48;10.30;91.50
38941;DHT22;43236;47.208;7.518;2024-02-14T09:19:35;10.40;91.20
38941;DHT22;43236;47.208;7.518;2024-02-14T09:22:23;10.40;91.80
38941;DHT22;43236;47.208;7.518;2024-02-14T09:25:10;10.50;91.90
38941;DHT22;43236;47.208;7.518;2024-02-14T09:27:59;10.50;92.30
38941;DHT22;43236;47.208;7.518;2024-02-14T09:30:46;10.60;91.80
38941;DHT22;43236;47.208;7.518;2024-02-14T09:33:33;10.60;91.40
38941;DHT22;43236;47.208;7.518;2024-02-14T09:36:20;10.60;91.10
38941;DHT22;43236;47.208;7.518;2024-02-14T09:39:09;10.60;91.50
38941;DHT22;43236;47.208;7.518;2024-02-14T09:41:58;10.60;91.50
38941;DHT22;43236;47.208;7.518;2024-02-14T09:44:47;10.70;91.20
38941;DHT22;43236;47.208;7.518;2024-02-14T09:47:37;10.70;91.30
38941;DHT22;43236;47.208;7.518;2024-02-14T09:50:26;10.70;91.70
38941;DHT22;43236;47.208;7.518;2024-02-14T09:53:17;10.80;91.40
38941;DHT22;43236;47.208;7.518;2024-02-14T09:56:06;10.80;91.40
38941;DHT22;43236;47.208;7.518;2024-02-14T09:58:55;10.90;90.80
38941;DHT22;43236;47.208;7.518;2024-02-14T10:01:43;11.00;90.80
38941;DHT22;43236;47.208;7.518;2024-02-14T10:04:31;11.00;90.60
38941;DHT22;43236;47.208;7.518;2024-02-14T10:07:19;11.00;90.50
38941;DHT22;43236;47.208;7.518;2024-02-14T10:10:06;11.10;90.40
38941;DHT22;43236;47.208;7.518;2024-02-14T10:12:55;11.10;90.10
38941;DHT22;43236;47.208;7.518;2024-02-14T10:15:42;11.10;89.40
38941;DHT22;43236;47.208;7.518;2024-02-14T10:18:31;11.10;90.00
38941;DHT22;43236;47.208;7.518;2024-02-14T10:21:18;11.20;88.50
38941;DHT22;43236;47.208;7.518;2024-02-14T10:24:08;11.20;88.00
38941;DHT22;43236;47.208;7.518;2024-02-14T10:26:56;11.20;88.30
38941;DHT22;43236;47.208;7.518;2024-02-14T10:29:45;11.20;88.90
38941;DHT22;43236;47.208;7.518;2024-02-14T10:32:32;11.30;88.70
38941;DHT22;43236;47.208;7.518;2024-02-14T10:35:20;11.30;89.70
38941;DHT22;43236;47.208;7.518;2024-02-14T10:38:08;11.40;90.00
38941;DHT22;43236;47.208;7.518;2024-02-14T10:40:55;11.40;90.00
38941;DHT22;43236;47.208;7.518;2024-02-14T10:43:43;11.40;89.70
38941;DHT22;43236;47.208;7.518;2024-02-14T10:46:34;11.40;90.20
38941;DHT22;43236;47.208;7.518;2024-02-14T10:49:24;11.50;89.50
38941;DHT22;43236;47.208;7.518;2024-02-14T10:52:13;11.40;90.00
38941;DHT22;43236;47.208;7.518;2024-02-14T10:55:03;11.40;88.20
38941;DHT22;43236;47.208;7.518;2024-02-14T10:57:51;11.40;88.20
38941;DHT22;43236;47.208;7.518;2024-02-14T11:00:38;11.50;89.40
38941;DHT22;43236;47.208;7.518;2024-02-14T11:03:27;11.50;87.60
38941;DHT22;43236;47.208;7.518;2024-02-14T11:06:16;11.50;88.30
38941;DHT22;43236;47.208;7.518;2024-02-14T11:09:04;11.60;88.90
38941;DHT22;43236;47.208;7.518;2024-02-14T11:12:00;11.70;88.10
38941;DHT22;43236;47.208;7.518;2024-02-14T11:14:47;11.80;88.80
38941;DHT22;43236;47.208;7.518;2024-02-14T11:17:39;11.90;90.20
38941;DHT22;43236;47.208;7.518;2024-02-14T11:20:33;12.00;88.90
38941;DHT22;43236;47.208;7.518;2024-02-14T11:23:22;12.10;89.40
38941;DHT22;43236;47.208;7.518;2024-02-14T11:26:15;12.20;89.80
38941;DHT22;43236;47.208;7.518;2024-02-14T11:29:04;12.20;89.80
38941;DHT22;43236;47.208;7.518;2024-02-14T11:31:57;12.30;89.40
38941;DHT22;43236;47.208;7.518;2024-02-14T11:34:53;12.40;89.90
38941;DHT22;43236;47.208;7.518;2024-02-14T11:37:42;12.40;89.40
38941;DHT22;43236;47.208;7.518;2024-02-14T11:40:29;12.50;89.20
38941;DHT22;43236;47.208;7.518;2024-02-14T11:43:18;12.50;87.80
38941;DHT22;43236;47.208;7.518;2024-02-14T11:46:05;12.60;87.30
38941;DHT22;43236;47.208;7.518;2024-02-14T11:48:52;12.60;88.00
38941;DHT22;43236;47.208;7.518;2024-02-14T11:51:40;12.50;87.80
38941;DHT22;43236;47.208;7.518;2024-02-14T11:54:29;12.50;88.80
38941;DHT22;43236;47.208;7.518;2024-02-14T11:57:17;12.60;87.50
38941;DHT22;43236;47.208;7.518;2024-02-14T12:00:06;12.60;88.00
38941;DHT22;43236;47.208;7.518;2024-02-14T12:02:53;12.60;87.60
38941;DHT22;43236;47.208;7.518;2024-02-14T12:05:40;12.60;86.00
38941;DHT22;43236;47.208;7.518;2024-02-14T12:08:29;12.70;87.10
38941;DHT22;43236;47.208;7.518;2024-02-14T12:11:18;12.80;87.90
38941;DHT22;43236;47.208;7.518;2024-02-14T12:14:06;12.80;86.20
38941;DHT22;43236;47.208;7.518;2024-02-14T12:16:56;12.90;85.70
38941;DHT22;43236;47.208;7.518;2024-02-14T12:19:46;12.90;86.60
38941;DHT22;43236;47.208;7.518;2024-02-14T12:22:34;13.00;86.70
38941;DHT22;43236;47.208;7.518;2024-02-14T12:25:21;13.10;85.20
38941;DHT22;43236;47.208;7.518;2024-02-14T12:28:13;13.10;84.60
38941;DHT22;43236;47.208;7.518;2024-02-14T12:31:00;13.10;84.90
38941;DHT22;43236;47.208;7.518;2024-02-14T12:33:48;13.20;84.70
38941;DHT22;43236;47.208;7.518;2024-02-14T12:36:35;13.20;84.20
38941;DHT22;43236;47.208;7.518;2024-02-14T12:39:22;13.20;85.80
38941;DHT22;43236;47.208;7.518;2024-02-14T12:42:11;13.20;85.10
38941;DHT22;43236;47.208;7.518;2024-02-14T12:45:00;13.30;84.60
38941;DHT22;43236;47.208;7.518;2024-02-14T12:47:47;13.40;83.90
38941;DHT22;43236;47.208;7.518;2024-02-14T12:50:34;13.40;84.00
38941;DHT22;43236;47.208;7.518;2024-02-14T12:53:23;13.30;84.00
38941;DHT22;43236;47.208;7.518;2024-02-14T12:56:10;13.40;85.90
38941;DHT22;43236;47.208;7.518;2024-02-14T12:58:58;13.40;85.10
38941;DHT22;43236;47.208;7.518;2024-02-14T13:01:47;13.40;85.20
38941;DHT22;43236;47.208;7.518;2024-02-14T13:04:34;13.40;84.50
38941;DHT22;43236;47.208;7.518;2024-02-14T13:07:21;13.40;84.00
38941;DHT22;43236;47.208;7.518;2024-02-14T13:10:09;13.50;86.30
38941;DHT22;43236;47.208;7.518;2024-02-14T13:12:57;13.50;85.70
38941;DHT22;43236;47.208;7.518;2024-02-14T13:15:44;13.50;84.80
38941;DHT22;43236;47.208;7.518;2024-02-14T13:18:32;13.50;85.00
38941;DHT22;43236;47.208;7.518;2024-02-14T13:21:20;13.50;85.00
38941;DHT22;43236;47.208;7.518;2024-02-14T13:24:07;13.50;86.30
38941;DHT22;43236;47.208;7.518;2024-02-14T13:26:58;13.50;87.00
38941;DHT22;43236;47.208;7.518;2024-02-14T13:29:45;13.50;87.70
38941;DHT22;43236;47.208;7.518;2024-02-14T13:32:33;13.50;87.40
38941;DHT22;43236;47.208;7.518;2024-02-14T13:35:21;13.50;87.90
38941;DHT22;43236;47.208;7.518;2024-02-14T13:38:09;13.50;88.30
38941;DHT22;43236;47.208;7.518;2024-02-14T13:40:56;13.50;87.80
38941;DHT22;43236;47.208;7.518;2024-02-14T13:43:43;13.50;87.70
38941;DHT22;43236;47.208;7.518;2024-02-14T13:46:30;13.60;87.80
38941;DHT22;43236;47.208;7.518;2024-02-14T13:49:17;13.60;86.20
38941;DHT22;43236;47.208;7.518;2024-02-14T13:52:09;13.50;86.50
38941;DHT22;43236;47.208;7.518;2024-02-14T13:54:56;13.50;86.00
38941;DHT22;43236;47.208;7.518;2024-02-14T13:57:43;13.50;85.80
38941;DHT22;43236;47.208;7.518;2024-02-14T14:00:30;13.50;87.20
38941;DHT22;43236;47.208;7.518;2024-02-14T14:03:19;13.60;85.90
38941;DHT22;43236;47.208;7.518;2024-02-14T14:06:06;13.60;85.60
38941;DHT22;43236;47.208;7.518;2024-02-14T14:08:55;13.60;84.90
38941;DHT22;43236;47.208;7.518;2024-02-14T14:11:42;13.60;85.80
38941;DHT22;43236;47.208;7.518;2024-02-14T14:14:29;13.70;86.00
38941;DHT22;43236;47.208;7.518;2024-02-14T14:17:16;13.70;85.00
38941;DHT22;43236;47.208;7.518;2024-02-14T14:20:03;13.70;83.90
38941;DHT22;43236;47.208;7.518;2024-02-14T14:22:53;13.70;83.80
38941;DHT22;43236;47.208;7.518;2024-02-14T14:25:42;13.70;84.10
38941;DHT22;43236;47.208;7.518;2024-02-14T14:28:29;13.70;84.10
38941;DHT22;43236;47.208;7.518;2024-02-14T14:31:17;13.70;84.80
38941;DHT22;43236;47.208;7.518;2024-02-14T14:34:04;13.70;84.90
38941;DHT22;43236;47.208;7.518;2024-02-14T14:36:51;13.70;85.20
38941;DHT22;43236;47.208;7.518;2024-02-14T14:39:40;13.60;86.80
38941;DHT22;43236;47.208;7.518;2024-02-14T14:42:29;13.60;85.90
38941;DHT22;43236;47.208;7.518;2024-02-14T14:45:16;13.60;86.10
38941;DHT22;43236;47.208;7.518;2024-02-14T14:48:04;13.60;85.40
38941;DHT22;43236;47.208;7.518;2024-02-14T14:50:51;13.60;85.00
38941;DHT22;43236;47.208;7.518;2024-02-14T14:53:38;13.60;84.80
38941;DHT22;43236;47.208;7.518;2024-02-14T14:56:25;13.70;85.90
38941;DHT22;43236;47.208;7.518;2024-02-14T14:59:14;13.70;87.40
38941;DHT22;43236;47.208;7.518;2024-02-14T15:02:01;13.70;86.30
38941;DHT22;43236;47.208;7.518;2024-02-14T15:04:48;13.70;87.00
38941;DHT22;43236;47.208;7.518;2024-02-14T15:07:36;13.70;86.30
38941;DHT22;43236;47.208;7.518;2024-02-14T15:10:24;13.70;85.70
38941;DHT22;43236;47.208;7.518;2024-02-14T15:13:11;13.70;85.80
38941;DHT22;43236;47.208;7.518;2024-02-14T15:16:00;13.70;88.00
38941;DHT22;43236;47.208;7.518;2024-02-14T15:18:49;13.70;87.70
38941;DHT22;43236;47.208;7.518;2024-02-14T15:21:37;13.60;87.60
38941;DHT22;43236;47.208;7.518;2024-02-14T15:24:24;13.60;86.40
38941;DHT22;43236;47.208;7.518;2024-02-14T15:27:11;13.60;85.30
38941;DHT22;43236;47.208;7.518;2024-02-14T15:30:07;13.60;85.90
38941;DHT22;43236;47.208;7.518;2024-02-14T15:33:23;13.50;85.70
38941;DHT22;43236;47.208;7.518;2024-02-14T15:36:10;13.50;85.90
38941;DHT22;43236;47.208;7.518;2024-02-14T15:39:01;13.50;86.20
38941;DHT22;43236;47.208;7.518;2024-02-14T15:41:48;13.50;86.40
38941;DHT22;43236;47.208;7.518;2024-02-14T15:44:35;13.50;86.20
38941;DHT22;43236;47.208;7.518;2024-02-14T15:47:22;13.50;85.30
38941;DHT22;43236;47.208;7.518;2024-02-14T15:50:11;13.40;85.00
38941;DHT22;43236;47.208;7.518;2024-02-14T15:52:58;13.40;84.90
38941;DHT22;43236;47.208;7.518;2024-02-14T15:55:45;13.40;84.20
38941;DHT22;43236;47.208;7.518;2024-02-14T15:58:32;13.40;85.20
38941;DHT22;43236;47.208;7.518;2024-02-14T16:01:19;13.40;83.60
38941;DHT22;43236;47.208;7.518;2024-02-14T16:04:06;13.40;85.40
38941;DHT22;43236;47.208;7.518;2024-02-14T16:06:56;13.40;85.30
38941;DHT22;43236;47.208;7.518;2024-02-14T16:09:43;13.30;86.40
38941;DHT22;43236;47.208;7.518;2024-02-14T16:12:30;13.30;86.90
38941;DHT22;43236;47.208;7.518;2024-02-14T16:15:17;13.20;86.90
38941;DHT22;43236;47.208;7.518;2024-02-14T16:18:05;13.30;87.60
38941;DHT22;43236;47.208;7.518;2024-02-14T16:20:52;13.30;86.10
38941;DHT22;43236;47.208;7.518;2024-02-14T16:23:41;13.20;86.50
38941;DHT22;43236;47.208;7.518;2024-02-14T16:26:28;13.20;87.00
38941;DHT22;43236;47.208;7.518;2024-02-14T16:29:15;13.20;87.10
38941;DHT22;43236;47.208;7.518;2024-02-14T16:32:02;13.20;87.80
38941;DHT22;43236;47.208;7.518;2024-02-14T16:34:49;13.10;88.50
38941;DHT22;43236;47.208;7.518;2024-02-14T16:37:36;13.10;88.60
38941;DHT22;43236;47.208;7.518;2024-02-14T16:40:24;13.00;89.50
38941;DHT22;43236;47.208;7.518;2024-02-14T16:43:12;13.00;90.00
38941;DHT22;43236;47.208;7.518;2024-02-14T16:45:59;12.90;90.30
38941;DHT22;43236;47.208;7.518;2024-02-14T16:48:47;12.90;90.50
38941;DHT22;43236;47.208;7.518;2024-02-14T16:51:34;12.90;90.50
38941;DHT22;43236;47.208;7.518;2024-02-14T16:54:21;12.80;90.60
38941;DHT22;43236;47.208;7.518;2024-02-14T16:57:10;12.80;90.50
38941;DHT22;43236;47.208;7.518;2024-02-14T16:59:57;12.70;90.20
38941;DHT22;43236;47.208;7.518;2024-02-14T17:02:44;12.70;90.60
38941;DHT22;43236;47.208;7.518;2024-02-14T17:05:31;12.70;90.80
38941;DHT22;43236;47.208;7.518;2024-02-14T17:08:18;12.60;90.90
38941;DHT22;43236;47.208;7.518;2024-02-14T17:11:05;12.60;90.90
38941;DHT22;43236;47.208;7.518;2024-02-14T17:13:54;12.60;89.60
38941;DHT22;43236;47.208;7.518;2024-02-14T17:16:41;12.60;90.00
38941;DHT22;43236;47.208;7.518;2024-02-14T17:19:28;12.60;90.50
38941;DHT22;43236;47.208;7.518;2024-02-14T17:22:16;12.60;89.90
38941;DHT22;43236;47.208;7.518;2024-02-14T17:25:03;12.60;90.00
38941;DHT22;43236;47.208;7.518;2024-02-14T17:27:53;12.70;90.20
38941;DHT22;43236;47.208;7.518;2024-02-14T17:30:41;12.70;90.30
38941;DHT22;43236;47.208;7.518;2024-02-14T17:33:28;12.70;90.20
38941;DHT22;43236;47.208;7.518;2024-02-14T17:36:16;12.70;90.60
38941;DHT22;43236;47.208;7.518;2024-02-14T17:39:03;12.70;91.50
38941;DHT22;43236;47.208;7.518;2024-02-14T17:41:51;12.70;91.50
38941;DHT22;43236;47.208;7.518;2024-02-14T17:44:38;12.70;91.20
38941;DHT22;43236;47.208;7.518;2024-02-14T17:47:26;12.70;91.50